createdAt,value
2018-04-26T00:01:33.589Z,18.34
2018-04-26T00:02:34.219Z,18.25
2018-04-26T00:03:34.801Z,18.29
2018-04-26T00:04:35.375Z,18.28
2018-04-26T00:06:20.510Z,18.31
2018-04-26T00:07:21.091Z,18.22
2018-04-26T00:08:21.670Z,18.25
2018-04-26T00:09:22.248Z,18.22
2018-04-26T00:11:07.488Z,18.25
2018-04-26T00:12:08.070Z,18.25
2018-04-26T00:13:08.649Z,18.26
2018-04-26T00:14:09.228Z,18.26
2018-04-26T00:15:54.378Z,18.26
2018-04-26T00:16:54.995Z,18.26
2018-04-26T00:17:55.574Z,18.29
2018-04-26T00:18:56.154Z,18.29
2018-04-26T00:20:41.247Z,18.29
2018-04-26T00:21:41.830Z,18.20
2018-04-26T00:22:42.409Z,18.34
2018-04-26T00:23:42.988Z,18.23
2018-04-26T00:25:28.231Z,18.20
2018-04-26T00:26:28.960Z,18.13
2018-04-26T00:27:29.539Z,18.19
2018-04-26T00:28:30.120Z,18.20
2018-04-26T00:30:15.210Z,18.18
2018-04-26T00:31:15.790Z,18.15
2018-04-26T00:32:16.370Z,18.19
2018-04-26T00:33:17.001Z,18.20
2018-04-26T00:35:02.096Z,18.25
2018-04-26T00:36:02.679Z,18.15
2018-04-26T00:37:03.256Z,18.20
2018-04-26T00:38:03.835Z,18.19
2018-04-26T00:39:48.929Z,18.22
2018-04-26T00:40:49.600Z,18.19
2018-04-26T00:41:50.228Z,18.20
2018-04-26T00:42:50.809Z,18.19
2018-04-26T00:44:35.903Z,18.20
2018-04-26T00:45:36.482Z,18.19
2018-04-26T00:46:37.061Z,18.22
2018-04-26T00:47:37.642Z,18.22
2018-04-26T00:49:22.888Z,18.10
2018-04-26T00:50:23.465Z,18.16
2018-04-26T00:51:24.042Z,18.19
2018-04-26T00:52:24.622Z,18.13
2018-04-26T00:54:09.864Z,18.23
2018-04-26T00:55:10.444Z,18.20
2018-04-26T00:56:11.024Z,18.25
2018-04-26T00:57:11.603Z,18.25
2018-04-26T00:58:56.694Z,18.33
2018-04-26T00:59:57.277Z,18.18
2018-04-26T01:00:57.895Z,18.23
2018-04-26T01:01:58.475Z,18.15
2018-04-26T01:03:43.615Z,18.18
2018-04-26T01:04:44.244Z,18.23
2018-04-26T01:05:44.822Z,18.11
2018-04-26T01:06:45.402Z,18.23
2018-04-26T01:08:30.539Z,18.19
2018-04-26T01:09:31.120Z,18.15
2018-04-26T01:10:31.699Z,18.08
2018-04-26T01:11:32.280Z,18.11
2018-04-26T01:13:17.429Z,18.18
2018-04-26T01:14:18.003Z,18.16
2018-04-26T01:15:18.587Z,18.22
2018-04-26T01:16:19.206Z,18.11
2018-04-26T01:18:04.297Z,18.20
2018-04-26T01:19:04.880Z,18.22
2018-04-26T01:20:05.463Z,18.18
2018-04-26T01:21:06.037Z,18.25
2018-04-26T01:22:51.178Z,18.15
2018-04-26T01:23:51.757Z,18.18
2018-04-26T01:24:52.336Z,18.19
2018-04-26T01:25:52.964Z,18.13
2018-04-26T01:27:38.058Z,18.15
2018-04-26T01:28:38.638Z,18.22
2018-04-26T01:29:39.218Z,18.18
2018-04-26T01:30:39.798Z,18.10
2018-04-26T01:32:25.090Z,18.10
2018-04-26T01:33:25.669Z,18.18
2018-04-26T01:34:26.250Z,18.18
2018-04-26T01:35:26.873Z,18.11
2018-04-26T01:37:11.963Z,18.18
2018-04-26T01:38:12.543Z,18.25
2018-04-26T01:39:13.121Z,18.08
2018-04-26T01:40:13.702Z,18.07
2018-04-26T01:41:58.793Z,18.08
2018-04-26T01:42:59.525Z,18.05
2018-04-26T01:44:00.146Z,18.11
2018-04-26T01:45:00.725Z,18.16
2018-04-26T01:46:45.917Z,18.18
2018-04-26T01:47:46.497Z,18.11
2018-04-26T01:48:47.074Z,18.05
2018-04-26T01:49:47.651Z,18.05
2018-04-26T01:51:32.743Z,18.20
2018-04-26T01:52:33.326Z,18.07
2018-04-26T01:53:33.906Z,18.03
2018-04-26T01:54:34.484Z,18.20
2018-04-26T01:56:19.618Z,18.18
2018-04-26T01:57:20.198Z,18.26
2018-04-26T01:58:20.778Z,18.23
2018-04-26T01:59:21.359Z,18.10
2018-04-26T02:01:06.448Z,18.01
2018-04-26T02:02:07.026Z,18.10
2018-04-26T02:03:07.607Z,18.08
2018-04-26T02:04:08.236Z,18.08
2018-04-26T02:05:53.378Z,18.08
2018-04-26T02:06:53.958Z,18.08
2018-04-26T02:07:54.634Z,18.03
2018-04-26T02:08:55.208Z,18.07
2018-04-26T02:10:40.304Z,18.03
2018-04-26T02:11:40.883Z,18.05
2018-04-26T02:12:41.463Z,18.08
2018-04-26T02:13:42.044Z,18.10
2018-04-26T02:15:27.135Z,18.08
2018-04-26T02:16:27.715Z,18.11
2018-04-26T02:17:28.294Z,18.07
2018-04-26T02:18:28.874Z,18.08
2018-04-26T02:20:14.166Z,18.07
2018-04-26T02:21:14.791Z,18.03
2018-04-26T02:22:15.370Z,18.13
2018-04-26T02:23:15.953Z,17.97
2018-04-26T02:25:01.137Z,18.08
2018-04-26T02:26:01.715Z,18.05
2018-04-26T02:27:02.293Z,17.97
2018-04-26T02:28:02.872Z,17.97
2018-04-26T02:29:47.964Z,17.94
2018-04-26T02:30:48.544Z,18.01
2018-04-26T02:31:49.124Z,18.13
2018-04-26T02:32:49.706Z,18.01
2018-04-26T02:34:34.794Z,18.08
2018-04-26T02:35:35.425Z,18.03
2018-04-26T02:36:36.009Z,17.97
2018-04-26T02:37:36.626Z,18.04
2018-04-26T02:39:21.768Z,18.07
2018-04-26T02:40:22.346Z,18.07
2018-04-26T02:41:22.924Z,18.07
2018-04-26T02:42:23.504Z,17.97
2018-04-26T02:44:08.595Z,18.00
2018-04-26T02:45:09.223Z,18.00
2018-04-26T02:46:09.806Z,17.94
2018-04-26T02:47:10.388Z,18.04
2018-04-26T02:48:55.475Z,17.98
2018-04-26T02:49:56.050Z,17.98
2018-04-26T02:50:56.629Z,17.94
2018-04-26T02:51:57.210Z,18.00
2018-04-26T02:53:42.300Z,18.01
2018-04-26T02:54:42.880Z,18.01
2018-04-26T02:55:43.458Z,18.03
2018-04-26T02:56:44.039Z,18.03
2018-04-26T02:58:29.137Z,17.97
2018-04-26T02:59:29.758Z,18.03
2018-04-26T03:00:30.387Z,17.94
2018-04-26T03:01:30.965Z,17.97
2018-04-26T03:03:16.109Z,17.97
2018-04-26T03:04:16.688Z,17.98
2018-04-26T03:05:17.274Z,18.00
2018-04-26T03:06:17.847Z,18.00
2018-04-26T03:08:02.979Z,18.03
2018-04-26T03:09:03.560Z,18.01
2018-04-26T03:10:04.141Z,18.03
2018-04-26T03:11:04.716Z,18.01
2018-04-26T03:12:49.806Z,17.94
2018-04-26T03:13:50.384Z,18.01
2018-04-26T03:14:50.964Z,17.92
2018-04-26T03:15:51.543Z,17.98
2018-04-26T03:17:36.683Z,17.97
2018-04-26T03:18:37.267Z,17.90
2018-04-26T03:19:37.841Z,18.00
2018-04-26T03:20:38.419Z,17.90
2018-04-26T03:22:23.512Z,18.03
2018-04-26T03:23:24.090Z,17.89
2018-04-26T03:24:24.720Z,18.04
2018-04-26T03:25:25.300Z,17.98
2018-04-26T03:27:10.486Z,17.97
2018-04-26T03:28:11.063Z,17.97
2018-04-26T03:29:11.683Z,18.00
2018-04-26T03:30:12.307Z,17.98
2018-04-26T03:31:57.397Z,18.01
2018-04-26T03:32:57.975Z,18.03
2018-04-26T03:33:58.555Z,17.98
2018-04-26T03:34:59.135Z,17.95
2018-04-26T03:36:44.226Z,17.97
2018-04-26T03:37:44.855Z,17.97
2018-04-26T03:38:45.435Z,17.97
2018-04-26T03:39:46.012Z,17.98
2018-04-26T03:41:31.103Z,17.97
2018-04-26T03:42:31.683Z,18.01
2018-04-26T03:43:32.312Z,17.97
2018-04-26T03:44:32.984Z,17.92
2018-04-26T03:46:18.078Z,18.00
2018-04-26T03:47:18.660Z,18.00
2018-04-26T03:48:19.236Z,18.01
2018-04-26T03:49:19.815Z,17.95
2018-04-26T03:51:04.906Z,17.95
2018-04-26T03:52:05.486Z,18.00
2018-04-26T03:53:06.115Z,18.03
2018-04-26T03:54:06.693Z,17.97
2018-04-26T03:55:51.785Z,17.97
2018-04-26T03:56:52.364Z,17.95
2018-04-26T03:57:52.945Z,17.89
2018-04-26T03:58:53.565Z,18.00
2018-04-26T04:01:40.279Z,17.97
2018-04-26T04:02:40.847Z,18.01
2018-04-26T04:03:41.426Z,18.01
2018-04-26T04:05:26.567Z,18.07
2018-04-26T04:06:27.146Z,18.01
2018-04-26T04:07:27.722Z,17.95
2018-04-26T04:12:34.608Z,17.98
2018-04-26T04:15:39.680Z,18.03
2018-04-26T04:17:47.887Z,17.98
2018-04-26T04:22:36.647Z,17.98
2018-04-26T04:24:39.191Z,17.95
2018-04-26T04:25:39.762Z,17.95
2018-04-26T04:27:24.709Z,17.92
2018-04-26T04:28:25.254Z,18.00
2018-04-26T04:29:25.874Z,18.01
2018-04-26T04:30:26.451Z,18.01
2018-04-26T04:32:11.366Z,17.97
2018-04-26T04:33:11.937Z,17.98
2018-04-26T04:34:12.510Z,17.98
2018-04-26T04:35:13.112Z,17.98
2018-04-26T04:36:58.002Z,18.00
2018-04-26T04:37:58.575Z,17.94
2018-04-26T04:38:59.240Z,17.95
2018-04-26T04:39:59.812Z,18.00
2018-04-26T04:41:44.735Z,17.95
2018-04-26T04:42:45.361Z,18.03
2018-04-26T04:43:45.971Z,18.01
2018-04-26T04:44:46.597Z,17.95
2018-04-26T04:46:31.514Z,17.94
2018-04-26T04:47:32.087Z,17.98
2018-04-26T04:48:32.703Z,17.98
2018-04-26T04:49:33.277Z,17.98
2018-04-26T04:51:18.201Z,17.98
2018-04-26T04:52:18.774Z,17.98
2018-04-26T04:53:19.346Z,17.97
2018-04-26T04:54:19.919Z,17.92
2018-04-26T04:56:04.841Z,18.00
2018-04-26T04:57:05.411Z,18.01
2018-04-26T04:58:06.035Z,17.89
2018-04-26T04:59:06.607Z,17.95
2018-04-26T05:00:51.629Z,17.97
2018-04-26T05:01:52.203Z,18.03
2018-04-26T05:02:52.775Z,17.89
2018-04-26T05:03:53.348Z,18.00
2018-04-26T05:05:38.271Z,17.89
2018-04-26T05:06:38.842Z,18.00
2018-04-26T05:07:39.417Z,17.97
2018-04-26T05:08:39.990Z,17.95
2018-04-26T05:10:24.912Z,18.00
2018-04-26T05:11:25.483Z,17.90
2018-04-26T05:12:26.057Z,17.97
2018-04-26T05:13:26.632Z,17.87
2018-04-26T05:15:11.604Z,17.90
2018-04-26T05:16:57.987Z,17.92
2018-04-26T05:18:12.325Z,17.85
2018-04-26T05:22:31.672Z,17.83
2018-04-26T05:29:27.807Z,17.90
2018-04-26T05:30:28.478Z,17.85
2018-04-26T05:31:29.100Z,17.90
2018-04-26T05:32:29.673Z,17.89
2018-04-26T05:34:14.794Z,17.90
2018-04-26T05:35:15.365Z,17.83
2018-04-26T05:36:15.937Z,17.85
2018-04-26T05:37:16.510Z,17.86
2018-04-26T05:39:01.432Z,17.83
2018-04-26T05:40:02.004Z,17.87
2018-04-26T05:41:02.576Z,17.85
2018-04-26T05:42:03.148Z,17.87
2018-04-26T05:43:48.069Z,17.82
2018-04-26T05:44:48.641Z,17.94
2018-04-26T05:45:49.215Z,17.85
2018-04-26T05:46:49.792Z,17.82
2018-04-26T05:48:34.863Z,17.83
2018-04-26T05:49:35.383Z,17.89
2018-04-26T05:50:35.956Z,17.83
2018-04-26T05:51:36.528Z,17.86
2018-04-26T05:53:21.501Z,17.83
2018-04-26T05:54:22.076Z,17.86
2018-04-26T05:55:22.648Z,17.83
2018-04-26T05:56:23.223Z,17.85
2018-04-26T05:58:08.143Z,17.90
2018-04-26T05:59:08.715Z,17.87
2018-04-26T06:00:09.289Z,17.83
2018-04-26T06:01:09.862Z,17.94
2018-04-26T06:02:54.783Z,17.85
2018-04-26T06:03:55.354Z,17.80
2018-04-26T06:04:55.929Z,17.87
2018-04-26T06:05:56.551Z,17.87
2018-04-26T06:07:41.474Z,17.92
2018-04-26T06:08:42.196Z,17.83
2018-04-26T06:09:42.769Z,17.87
2018-04-26T06:10:43.342Z,17.79
2018-04-26T06:12:28.265Z,17.85
2018-04-26T06:13:28.838Z,17.89
2018-04-26T06:14:29.411Z,17.86
2018-04-26T06:15:29.985Z,17.85
2018-04-26T06:17:14.947Z,17.86
2018-04-26T06:18:15.479Z,17.82
2018-04-26T06:19:16.061Z,17.80
2018-04-26T06:20:16.627Z,17.89
2018-04-26T06:22:01.698Z,17.86
2018-04-26T06:23:02.271Z,17.83
2018-04-26T06:24:02.844Z,17.87
2018-04-26T06:25:03.517Z,17.94
2018-04-26T06:26:48.427Z,17.83
2018-04-26T06:27:49.049Z,17.82
2018-04-26T06:28:49.622Z,17.87
2018-04-26T06:29:50.193Z,17.83
2018-04-26T06:31:35.116Z,17.82
2018-04-26T06:32:35.689Z,17.90
2018-04-26T06:33:36.262Z,17.87
2018-04-26T06:34:36.837Z,17.90
2018-04-26T06:36:21.763Z,17.87
2018-04-26T06:37:22.331Z,17.85
2018-04-26T06:38:22.906Z,17.82
2018-04-26T06:39:23.480Z,17.87
2018-04-26T06:41:08.452Z,17.87
2018-04-26T06:42:09.026Z,17.87
2018-04-26T06:43:09.648Z,17.83
2018-04-26T06:44:10.221Z,17.90
2018-04-26T06:45:55.143Z,17.87
2018-04-26T06:46:55.715Z,17.85
2018-04-26T06:47:56.377Z,17.87
2018-04-26T06:48:56.904Z,17.87
2018-04-26T06:50:41.973Z,17.86
2018-04-26T06:51:42.545Z,17.90
2018-04-26T06:52:43.118Z,17.90
2018-04-26T06:53:43.742Z,17.90
2018-04-26T06:55:28.663Z,17.83
2018-04-26T06:56:29.235Z,17.90
2018-04-26T06:57:29.813Z,17.87
2018-04-26T06:58:30.429Z,17.92
2018-04-26T07:00:15.398Z,17.87
2018-04-26T07:01:15.971Z,17.87
2018-04-26T07:02:16.545Z,17.87
2018-04-26T07:03:17.118Z,17.83
2018-04-26T07:05:02.039Z,17.90
2018-04-26T07:06:02.661Z,17.85
2018-04-26T07:07:03.233Z,17.83
2018-04-26T07:08:03.805Z,17.90
2018-04-26T07:09:48.731Z,17.86
2018-04-26T07:10:49.300Z,17.86
2018-04-26T07:11:49.925Z,17.86
2018-04-26T07:12:50.498Z,17.89
2018-04-26T07:14:35.420Z,17.89
2018-04-26T07:15:36.002Z,17.85
2018-04-26T07:16:36.615Z,17.85
2018-04-26T07:17:37.184Z,17.92
2018-04-26T07:19:22.154Z,17.97
2018-04-26T07:20:22.729Z,17.86
2018-04-26T07:21:23.301Z,17.83
2018-04-26T07:22:23.873Z,17.85
2018-04-26T07:24:08.796Z,17.95
2018-04-26T07:25:09.368Z,17.90
2018-04-26T07:26:10.042Z,17.87
2018-04-26T07:27:10.565Z,17.90
2018-04-26T07:28:55.490Z,18.00
2018-04-26T07:29:56.103Z,17.82
2018-04-26T07:30:56.677Z,17.90
2018-04-26T07:31:57.250Z,17.85
2018-04-26T07:33:42.320Z,17.86
2018-04-26T07:34:42.894Z,17.86
2018-04-26T07:35:43.467Z,17.90
2018-04-26T07:36:44.090Z,17.87
2018-04-26T07:38:29.013Z,17.89
2018-04-26T07:39:29.585Z,17.87
2018-04-26T07:40:30.159Z,17.86
2018-04-26T07:41:30.733Z,17.89
2018-04-26T07:43:15.853Z,17.92
2018-04-26T07:44:16.427Z,17.85
2018-04-26T07:45:17.000Z,17.90
2018-04-26T07:46:17.573Z,17.85
2018-04-26T07:48:02.492Z,17.95
2018-04-26T07:49:03.064Z,17.98
2018-04-26T07:50:03.639Z,17.92
2018-04-26T07:51:04.213Z,17.83
2018-04-26T07:52:49.183Z,18.04
2018-04-26T07:53:49.757Z,17.92
2018-04-26T07:54:50.329Z,17.90
2018-04-26T07:55:50.954Z,17.98
2018-04-26T07:57:35.873Z,18.00
2018-04-26T07:58:36.448Z,17.95
2018-04-26T07:59:37.113Z,17.89
2018-04-26T08:00:37.686Z,17.95
2018-04-26T08:02:22.608Z,17.95
2018-04-26T08:03:23.181Z,17.95
2018-04-26T08:04:23.755Z,17.98
2018-04-26T08:05:24.328Z,17.98
2018-04-26T08:07:09.251Z,18.01
2018-04-26T08:08:09.824Z,17.90
2018-04-26T08:09:10.397Z,17.98
2018-04-26T08:10:11.022Z,18.01
2018-04-26T08:11:55.945Z,18.00
2018-04-26T08:12:56.519Z,17.97
2018-04-26T08:13:57.134Z,17.95
2018-04-26T08:14:57.708Z,17.94
2018-04-26T08:16:42.678Z,18.01
2018-04-26T08:17:43.252Z,17.92
2018-04-26T08:18:43.824Z,17.97
2018-04-26T08:19:44.421Z,17.95
2018-04-26T08:21:29.330Z,18.00
2018-04-26T08:22:29.942Z,18.01
2018-04-26T08:23:30.515Z,17.98
2018-04-26T08:24:31.087Z,17.97
2018-04-26T08:26:16.010Z,17.86
2018-04-26T08:27:16.590Z,17.82
2018-04-26T08:28:17.157Z,17.86
2018-04-26T08:29:17.729Z,17.80
2018-04-26T08:31:02.704Z,17.79
2018-04-26T08:32:03.326Z,17.72
2018-04-26T08:33:03.898Z,17.83
2018-04-26T08:34:04.471Z,17.78
2018-04-26T08:35:49.392Z,17.74
2018-04-26T08:36:50.036Z,17.71
2018-04-26T08:37:50.542Z,17.70
2018-04-26T08:38:51.114Z,17.71
2018-04-26T08:40:36.038Z,17.70
2018-04-26T08:41:36.612Z,17.67
2018-04-26T08:42:37.246Z,17.72
2018-04-26T08:43:37.815Z,17.70
2018-04-26T08:45:22.777Z,17.70
2018-04-26T08:46:23.351Z,17.76
2018-04-26T08:47:23.925Z,17.72
2018-04-26T08:48:24.550Z,17.70
2018-04-26T08:50:09.474Z,17.76
2018-04-26T08:51:10.047Z,17.71
2018-04-26T08:52:10.671Z,17.74
2018-04-26T08:53:11.246Z,17.70
2018-04-26T08:54:56.168Z,17.74
2018-04-26T08:55:56.743Z,17.80
2018-04-26T08:56:57.321Z,17.71
2018-04-26T08:57:57.993Z,17.71
2018-04-26T08:59:43.043Z,17.70
2018-04-26T09:00:43.527Z,17.71
2018-04-26T09:01:44.102Z,17.74
2018-04-26T09:02:44.676Z,17.65
2018-04-26T09:04:29.599Z,17.67
2018-04-26T09:05:30.174Z,17.67
2018-04-26T09:06:30.798Z,17.74
2018-04-26T09:07:31.372Z,17.68
2018-04-26T09:09:16.295Z,17.67
2018-04-26T09:10:16.869Z,17.72
2018-04-26T09:11:17.443Z,17.68
2018-04-26T09:12:18.071Z,17.71
2018-04-26T09:14:03.035Z,17.71
2018-04-26T09:15:03.656Z,17.78
2018-04-26T09:16:04.283Z,17.79
2018-04-26T09:17:04.891Z,17.74
2018-04-26T09:18:49.863Z,17.83
2018-04-26T09:19:50.437Z,17.85
2018-04-26T09:20:51.010Z,17.83
2018-04-26T09:21:51.617Z,17.85
2018-04-26T09:23:36.508Z,17.98
2018-04-26T09:24:37.082Z,18.01
2018-04-26T09:25:37.658Z,18.00
2018-04-26T09:26:38.229Z,18.00
2018-04-26T09:28:23.155Z,17.95
2018-04-26T09:29:23.727Z,18.03
2018-04-26T09:30:24.302Z,18.01
2018-04-26T09:31:24.876Z,18.00
2018-04-26T09:33:10.001Z,18.01
2018-04-26T09:34:10.575Z,18.01
2018-04-26T09:35:11.150Z,18.04
2018-04-26T09:36:11.724Z,18.03
2018-04-26T09:37:56.696Z,18.10
2018-04-26T09:38:57.270Z,18.05
2018-04-26T09:39:57.846Z,18.13
2018-04-26T09:40:58.419Z,18.20
2018-04-26T09:42:43.351Z,18.05
2018-04-26T09:43:43.960Z,18.22
2018-04-26T09:44:44.534Z,18.08
2018-04-26T09:45:45.110Z,18.18
2018-04-26T09:47:30.183Z,18.11
2018-04-26T09:48:30.759Z,18.19
2018-04-26T09:49:31.375Z,18.22
2018-04-26T09:50:31.948Z,18.19
2018-04-26T09:52:16.873Z,18.20
2018-04-26T09:53:17.496Z,18.19
2018-04-26T09:54:18.070Z,18.25
2018-04-26T09:55:18.643Z,18.16
2018-04-26T09:57:03.567Z,18.29
2018-04-26T09:58:04.141Z,18.29
2018-04-26T09:59:04.714Z,18.26
2018-04-26T10:00:05.290Z,18.28
2018-04-26T10:01:50.330Z,18.28
2018-04-26T10:02:50.840Z,18.28
2018-04-26T10:03:51.415Z,18.29
2018-04-26T10:04:52.042Z,18.29
2018-04-26T10:06:36.960Z,18.31
2018-04-26T10:07:37.532Z,18.33
2018-04-26T10:08:38.151Z,18.35
2018-04-26T10:09:38.726Z,18.35
2018-04-26T10:11:23.651Z,18.35
2018-04-26T10:12:24.226Z,18.40
2018-04-26T10:13:24.802Z,18.37
2018-04-26T10:14:25.395Z,18.40
2018-04-26T10:16:10.300Z,18.40
2018-04-26T10:17:10.873Z,18.37
2018-04-26T10:18:11.448Z,18.40
2018-04-26T10:19:12.022Z,18.38
2018-04-26T10:20:56.997Z,18.47
2018-04-26T10:21:57.573Z,18.49
2018-04-26T10:22:58.241Z,18.45
2018-04-26T10:23:58.816Z,18.43
2018-04-26T10:25:43.789Z,18.45
2018-04-26T10:26:44.366Z,18.52
2018-04-26T10:27:44.941Z,18.45
2018-04-26T10:28:45.515Z,18.53
2018-04-26T10:30:30.438Z,18.49
2018-04-26T10:31:31.012Z,18.47
2018-04-26T10:32:31.587Z,18.52
2018-04-26T10:33:32.162Z,18.52
2018-04-26T10:35:17.160Z,18.56
2018-04-26T10:36:17.705Z,18.50
2018-04-26T10:37:18.280Z,18.53
2018-04-26T10:38:18.854Z,18.53
2018-04-26T10:40:03.779Z,18.63
2018-04-26T10:41:04.403Z,18.53
2018-04-26T10:42:05.032Z,18.49
2018-04-26T10:43:05.601Z,18.53
2018-04-26T10:44:50.522Z,18.65
2018-04-26T10:45:51.103Z,18.68
2018-04-26T10:46:51.765Z,18.53
2018-04-26T10:47:52.338Z,18.63
2018-04-26T10:49:37.267Z,18.58
2018-04-26T10:50:37.837Z,18.62
2018-04-26T10:51:38.411Z,18.65
2018-04-26T10:52:38.987Z,18.63
2018-04-26T10:54:23.912Z,18.73
2018-04-26T10:55:24.488Z,18.70
2018-04-26T10:56:25.060Z,18.74
2018-04-26T10:57:25.635Z,18.71
2018-04-26T10:59:10.610Z,18.75
2018-04-26T11:00:11.266Z,18.74
2018-04-26T11:01:11.808Z,18.74
2018-04-26T11:02:12.383Z,18.83
2018-04-26T11:03:57.306Z,18.80
2018-04-26T11:04:57.880Z,18.88
2018-04-26T11:05:58.506Z,18.84
2018-04-26T11:06:59.080Z,18.86
2018-04-26T11:08:44.005Z,18.88
2018-04-26T11:09:44.579Z,18.88
2018-04-26T11:10:45.155Z,18.89
2018-04-26T11:11:45.730Z,18.89
2018-04-26T11:13:30.655Z,18.89
2018-04-26T11:14:31.228Z,18.95
2018-04-26T11:15:31.824Z,18.92
2018-04-26T11:16:32.379Z,18.90
2018-04-26T11:18:17.354Z,18.98
2018-04-26T11:19:17.980Z,18.88
2018-04-26T11:20:18.606Z,18.90
2018-04-26T11:21:19.184Z,18.86
2018-04-26T11:23:04.105Z,18.98
2018-04-26T11:24:04.680Z,18.98
2018-04-26T11:25:05.304Z,18.95
2018-04-26T11:26:05.879Z,19.02
2018-04-26T11:27:50.804Z,18.96
2018-04-26T11:28:51.379Z,18.95
2018-04-26T11:29:51.955Z,19.02
2018-04-26T11:30:52.618Z,18.98
2018-04-26T11:32:37.654Z,19.09
2018-04-26T11:33:38.231Z,19.00
2018-04-26T11:34:38.809Z,19.04
2018-04-26T11:35:39.426Z,19.04
2018-04-26T11:37:29.451Z,19.14
2018-04-26T11:38:30.026Z,19.00
2018-04-26T11:39:30.650Z,19.08
2018-04-26T11:40:31.224Z,19.11
2018-04-26T11:42:16.147Z,19.07
2018-04-26T11:43:16.722Z,19.11
2018-04-26T11:44:17.302Z,19.09
2018-04-26T11:45:17.872Z,19.09
2018-04-26T11:47:02.797Z,19.16
2018-04-26T11:48:03.372Z,19.11
2018-04-26T11:49:03.949Z,19.15
2018-04-26T11:50:04.576Z,19.16
2018-04-26T11:51:49.499Z,19.11
2018-04-26T11:52:50.123Z,19.12
2018-04-26T11:53:50.697Z,19.12
2018-04-26T11:54:51.327Z,19.08
2018-04-26T11:56:36.245Z,19.18
2018-04-26T11:57:36.820Z,19.19
2018-04-26T11:58:37.396Z,19.18
2018-04-26T11:59:39.267Z,19.15
2018-04-26T12:01:24.244Z,19.11
2018-04-26T12:02:24.845Z,19.18
2018-04-26T12:03:25.431Z,19.21
2018-04-26T12:04:26.020Z,19.19
2018-04-26T12:06:10.939Z,19.21
2018-04-26T12:07:11.514Z,19.29
2018-04-26T12:08:12.089Z,19.22
2018-04-26T12:09:12.713Z,19.34
2018-04-26T12:10:57.641Z,19.29
2018-04-26T12:11:58.215Z,19.26
2018-04-26T12:12:58.790Z,19.30
2018-04-26T12:13:59.415Z,19.24
2018-04-26T12:15:44.391Z,19.30
2018-04-26T12:16:44.967Z,19.31
2018-04-26T12:17:45.545Z,19.27
2018-04-26T12:18:46.160Z,19.39
2018-04-26T12:20:31.084Z,19.40
2018-04-26T12:21:31.659Z,19.44
2018-04-26T12:22:32.234Z,19.45
2018-04-26T12:23:32.809Z,19.34
2018-04-26T12:25:17.736Z,19.36
2018-04-26T12:26:18.310Z,19.44
2018-04-26T12:27:18.886Z,19.41
2018-04-26T12:28:19.511Z,19.44
2018-04-26T12:30:04.437Z,19.47
2018-04-26T12:31:05.016Z,19.41
2018-04-26T12:32:05.793Z,19.48
2018-04-26T12:33:06.458Z,19.48
2018-04-26T12:34:51.379Z,19.49
2018-04-26T12:35:51.953Z,19.44
2018-04-26T12:36:52.538Z,19.45
2018-04-26T12:37:53.104Z,19.52
2018-04-26T12:39:38.030Z,19.47
2018-04-26T12:40:38.605Z,19.51
2018-04-26T12:41:39.257Z,19.54
2018-04-26T12:42:39.755Z,19.58
2018-04-26T12:44:24.681Z,19.54
2018-04-26T12:45:25.260Z,19.59
2018-04-26T12:46:25.834Z,19.56
2018-04-26T12:47:26.410Z,19.58
2018-04-26T12:49:11.386Z,19.62
2018-04-26T12:50:11.965Z,19.56
2018-04-26T12:51:12.589Z,19.52
2018-04-26T12:52:13.215Z,19.59
2018-04-26T12:53:58.139Z,19.59
2018-04-26T12:54:58.714Z,19.64
2018-04-26T12:55:59.291Z,19.62
2018-04-26T12:56:59.866Z,19.59
2018-04-26T12:58:44.793Z,19.59
2018-04-26T12:59:45.367Z,19.59
2018-04-26T13:00:45.943Z,19.69
2018-04-26T13:01:46.519Z,19.64
2018-04-26T13:03:31.444Z,19.59
2018-04-26T13:04:32.021Z,19.67
2018-04-26T13:05:32.639Z,19.63
2018-04-26T13:06:33.213Z,19.66
2018-04-26T13:08:18.189Z,19.59
2018-04-26T13:09:18.766Z,19.67
2018-04-26T13:10:19.392Z,19.62
2018-04-26T13:11:20.019Z,19.69
2018-04-26T13:13:04.943Z,19.63
2018-04-26T13:14:05.518Z,19.70
2018-04-26T13:15:06.094Z,19.67
2018-04-26T13:16:06.672Z,19.70
2018-04-26T13:17:51.595Z,19.76
2018-04-26T13:18:52.169Z,19.71
2018-04-26T13:19:52.745Z,19.67
2018-04-26T13:20:53.321Z,19.70
2018-04-26T13:22:38.250Z,19.66
2018-04-26T13:23:38.822Z,19.77
2018-04-26T13:24:39.398Z,19.73
2018-04-26T13:25:39.974Z,19.73
2018-04-26T13:27:24.978Z,19.73
2018-04-26T13:28:25.578Z,19.70
2018-04-26T13:29:26.196Z,19.71
2018-04-26T13:30:26.781Z,19.74
2018-04-26T13:32:11.705Z,19.74
2018-04-26T13:33:12.280Z,19.74
2018-04-26T13:34:12.854Z,19.76
2018-04-26T13:35:13.430Z,19.74
2018-04-26T13:36:58.408Z,19.70
2018-04-26T13:37:58.984Z,19.77
2018-04-26T13:38:59.559Z,19.77
2018-04-26T13:40:00.135Z,19.79
2018-04-26T13:41:45.060Z,19.74
2018-04-26T13:42:45.635Z,19.76
2018-04-26T13:43:46.210Z,19.73
2018-04-26T13:44:46.785Z,19.76
2018-04-26T13:46:31.711Z,19.84
2018-04-26T13:47:32.368Z,19.76
2018-04-26T13:48:32.960Z,19.79
2018-04-26T13:49:33.534Z,19.81
2018-04-26T13:51:18.461Z,19.81
2018-04-26T13:52:19.035Z,19.84
2018-04-26T13:53:19.634Z,19.84
2018-04-26T13:54:20.231Z,19.77
2018-04-26T13:56:05.206Z,19.81
2018-04-26T13:57:05.786Z,19.77
2018-04-26T13:58:06.401Z,19.77
2018-04-26T13:59:06.975Z,19.84
2018-04-26T14:00:51.900Z,19.76
2018-04-26T14:01:52.475Z,19.84
2018-04-26T14:02:53.051Z,19.81
2018-04-26T14:03:53.627Z,19.86
2018-04-26T14:05:38.668Z,19.88
2018-04-26T14:06:39.179Z,19.81
2018-04-26T14:07:39.806Z,19.84
2018-04-26T14:08:40.380Z,19.88
2018-04-26T14:10:25.456Z,19.88
2018-04-26T14:11:26.032Z,19.85
2018-04-26T14:12:26.607Z,19.88
2018-04-26T14:13:27.186Z,19.88
2018-04-26T14:15:12.149Z,19.89
2018-04-26T14:16:12.727Z,19.85
2018-04-26T14:17:13.394Z,19.88
2018-04-26T14:18:13.967Z,19.88
2018-04-26T14:19:58.894Z,19.88
2018-04-26T14:20:59.470Z,19.92
2018-04-26T14:22:00.046Z,19.91
2018-04-26T14:23:00.712Z,19.86
2018-04-26T14:24:45.596Z,19.99
2018-04-26T14:25:46.172Z,19.91
2018-04-26T14:26:46.747Z,19.91
2018-04-26T14:27:47.323Z,19.89
2018-04-26T14:29:32.416Z,20.06
2018-04-26T14:30:32.877Z,19.89
2018-04-26T14:31:33.453Z,19.89
2018-04-26T14:32:34.028Z,19.95
2018-04-26T14:34:18.957Z,19.95
2018-04-26T14:35:19.529Z,20.02
2018-04-26T14:36:20.109Z,19.92
2018-04-26T14:37:20.723Z,19.89
2018-04-26T14:39:05.605Z,19.94
2018-04-26T14:40:06.232Z,19.89
2018-04-26T14:41:06.808Z,19.92
2018-04-26T14:42:07.382Z,19.92
2018-04-26T14:43:52.507Z,19.92
2018-04-26T14:44:53.083Z,19.92
2018-04-26T14:45:53.657Z,19.92
2018-04-26T14:46:54.233Z,19.95
2018-04-26T14:48:39.160Z,19.99
2018-04-26T14:49:39.829Z,19.91
2018-04-26T14:50:40.359Z,19.96
2018-04-26T14:51:40.933Z,19.94
2018-04-26T14:53:25.860Z,19.95
2018-04-26T14:54:26.435Z,20.00
2018-04-26T14:55:27.011Z,19.99
2018-04-26T14:56:27.587Z,19.92
2018-04-26T14:58:12.513Z,19.95
2018-04-26T14:59:13.087Z,19.99
2018-04-26T15:00:13.665Z,20.02
2018-04-26T15:01:14.241Z,20.04
2018-04-26T15:02:59.217Z,20.00
2018-04-26T15:03:59.795Z,19.92
2018-04-26T15:05:00.372Z,20.04
2018-04-26T15:06:00.995Z,20.04
2018-04-26T15:07:45.920Z,20.00
2018-04-26T15:08:46.535Z,19.95
2018-04-26T15:09:47.070Z,20.02
2018-04-26T15:10:47.646Z,19.99
2018-04-26T15:12:37.628Z,20.03
2018-04-26T15:13:38.248Z,20.06
2018-04-26T15:14:38.865Z,20.07
2018-04-26T15:15:39.441Z,20.02
2018-04-26T15:17:24.365Z,20.09
2018-04-26T15:18:24.939Z,20.07
2018-04-26T15:19:25.518Z,20.06
2018-04-26T15:20:26.241Z,20.06
2018-04-26T15:22:11.216Z,20.06
2018-04-26T15:23:11.792Z,20.07
2018-04-26T15:24:12.368Z,19.99
2018-04-26T15:25:12.942Z,20.07
2018-04-26T15:26:57.868Z,20.13
2018-04-26T15:27:58.444Z,20.03
2018-04-26T15:28:59.027Z,19.96
2018-04-26T15:29:59.602Z,20.03
2018-04-26T15:31:44.529Z,20.03
2018-04-26T15:32:45.181Z,19.99
2018-04-26T15:33:45.680Z,20.13
2018-04-26T15:34:46.306Z,20.16
2018-04-26T15:36:31.280Z,20.00
2018-04-26T15:37:31.853Z,20.06
2018-04-26T15:38:32.577Z,20.02
2018-04-26T15:39:33.154Z,20.04
2018-04-26T15:41:18.127Z,20.09
2018-04-26T15:42:18.702Z,20.14
2018-04-26T15:43:19.278Z,20.18
2018-04-26T15:44:19.874Z,20.18
2018-04-26T15:46:04.778Z,20.16